createdAt,value
2023-04-25T00:01:39.259Z,9.43
2023-04-25T00:04:07.881Z,9.30
2023-04-25T00:06:37.465Z,9.44
2023-04-25T00:09:08.365Z,9.38
2023-04-25T00:11:36.138Z,9.41
2023-04-25T00:14:04.283Z,9.43
2023-04-25T00:16:35.998Z,9.38
2023-04-25T00:19:04.017Z,9.32
2023-04-25T00:21:32.941Z,9.54
2023-04-25T00:24:01.115Z,9.61
2023-04-25T00:26:29.731Z,9.49
2023-04-25T00:28:58.648Z,9.44
2023-04-25T00:31:26.689Z,9.43
2023-04-25T00:33:55.905Z,9.46
2023-04-25T00:36:23.904Z,9.52
2023-04-25T00:38:51.877Z,9.48
2023-04-25T00:41:20.882Z,9.43
2023-04-25T00:43:49.973Z,9.37
2023-04-25T00:46:19.055Z,9.39
2023-04-25T00:48:47.041Z,9.21
2023-04-25T00:51:19.152Z,9.22
2023-04-25T00:53:47.696Z,9.37
2023-04-25T00:56:16.502Z,9.49
2023-04-25T00:58:44.703Z,9.67
2023-04-25T01:01:13.807Z,9.66
2023-04-25T01:03:44.083Z,9.74
2023-04-25T01:06:12.951Z,9.58
2023-04-25T01:08:45.753Z,9.39
2023-04-25T01:11:13.959Z,9.32
2023-04-25T01:13:41.969Z,9.35
2023-04-25T01:16:10.419Z,9.14
2023-04-25T01:18:41.003Z,9.30
2023-04-25T01:21:11.051Z,9.49
2023-04-25T01:23:39.575Z,9.77
2023-04-25T01:26:08.361Z,9.94
2023-04-25T01:28:36.867Z,9.90
2023-04-25T01:31:05.394Z,9.81
2023-04-25T01:33:33.515Z,9.87
2023-04-25T01:36:02.272Z,9.81
2023-04-25T01:38:32.050Z,9.93
2023-04-25T01:41:01.941Z,9.93
2023-04-25T01:43:29.816Z,9.94
2023-04-25T01:45:58.755Z,9.87
2023-04-25T01:48:26.908Z,9.81
2023-04-25T01:50:57.435Z,9.79
2023-04-25T01:53:25.890Z,9.75
2023-04-25T01:55:56.432Z,9.61
2023-04-25T01:58:26.842Z,9.65
2023-04-25T02:01:13.604Z,9.87
2023-04-25T02:03:47.643Z,9.79
2023-04-25T02:06:27.913Z,9.83
2023-04-25T02:08:58.543Z,9.82
2023-04-25T02:11:28.126Z,9.81
2023-04-25T02:14:14.596Z,9.94
2023-04-25T02:16:52.521Z,9.94
2023-04-25T02:19:20.537Z,9.99
2023-04-25T02:21:48.556Z,10.06
2023-04-25T02:24:17.191Z,10.07
2023-04-25T02:26:47.757Z,10.04
2023-04-25T02:29:16.419Z,9.99
2023-04-25T02:31:44.317Z,9.98
2023-04-25T02:34:12.277Z,10.03
2023-04-25T02:36:40.703Z,10.04
2023-04-25T02:39:08.510Z,10.08
2023-04-25T02:41:36.295Z,10.04
2023-04-25T02:44:05.394Z,9.83
2023-04-25T02:49:06.245Z,9.79
2023-04-25T02:51:34.141Z,9.75
2023-04-25T02:54:02.126Z,9.69
2023-04-25T02:56:30.832Z,9.66
2023-04-25T02:58:59.177Z,9.51
2023-04-25T03:01:28.897Z,9.53
2023-04-25T03:03:57.093Z,9.42
2023-04-25T03:06:25.643Z,9.46
2023-04-25T03:08:54.241Z,9.58
2023-04-25T03:11:22.332Z,9.59
2023-04-25T03:13:50.320Z,9.70
2023-04-25T03:16:18.476Z,9.69
2023-04-25T03:18:47.749Z,9.49
2023-04-25T03:21:15.813Z,9.44
2023-04-25T03:23:43.584Z,9.49
2023-04-25T03:26:11.530Z,9.23
2023-04-25T03:28:40.715Z,9.15
2023-04-25T03:31:08.798Z,9.11
2023-04-25T03:33:36.534Z,8.83
2023-04-25T03:36:06.272Z,8.41
2023-04-25T03:38:34.054Z,8.34
2023-04-25T03:41:02.970Z,8.40
2023-04-25T03:43:40.727Z,8.69
2023-04-25T03:46:12.538Z,8.87
2023-04-25T03:48:41.845Z,8.61
2023-04-25T03:51:13.384Z,8.50
2023-04-25T03:53:44.825Z,7.97
2023-04-25T03:56:21.815Z,8.03
2023-04-25T03:58:56.120Z,7.70
2023-04-25T04:01:27.792Z,7.66
2023-04-25T04:03:56.025Z,7.59
2023-04-25T04:06:26.953Z,7.59
2023-04-25T04:09:03.632Z,7.64
2023-04-25T04:11:34.465Z,7.61
2023-04-25T04:14:02.395Z,7.75
2023-04-25T04:16:33.229Z,7.86
2023-04-25T04:19:02.557Z,7.82
2023-04-25T04:21:33.027Z,7.80
2023-04-25T04:24:01.776Z,7.69
2023-04-25T04:26:35.459Z,7.58
2023-04-25T04:29:13.868Z,7.59
2023-04-25T04:31:47.820Z,7.51
2023-04-25T04:34:17.741Z,7.45
2023-04-25T04:36:48.202Z,7.51
2023-04-25T04:39:16.556Z,7.36
2023-04-25T04:42:02.827Z,7.25
2023-04-25T04:44:50.055Z,7.10
2023-04-25T04:47:46.912Z,7.00
2023-04-25T04:50:34.450Z,6.97
2023-04-25T04:53:14.029Z,6.94
2023-04-25T04:56:01.322Z,6.92
2023-04-25T04:58:51.478Z,6.94
2023-04-25T05:01:37.002Z,6.95
2023-04-25T05:04:25.802Z,7.05
2023-04-25T05:07:29.042Z,7.10
2023-04-25T05:10:12.786Z,7.04
2023-04-25T05:13:04.653Z,7.03
2023-04-25T05:15:59.401Z,6.99
2023-04-25T05:18:48.577Z,6.94
2023-04-25T05:21:29.698Z,7.17
2023-04-25T05:24:11.380Z,7.28
2023-04-25T05:27:10.358Z,7.28
2023-04-25T05:29:46.696Z,7.22
2023-04-25T05:35:43.876Z,7.40
2023-04-25T05:38:20.565Z,7.57
2023-04-25T05:41:07.687Z,7.70
2023-04-25T05:46:54.657Z,7.61
2023-04-25T05:49:57.606Z,7.66
2023-04-25T05:56:00.725Z,8.32
2023-04-25T06:04:30.993Z,8.48
2023-04-25T06:09:43.461Z,8.18
2023-04-25T06:12:33.477Z,8.09
2023-04-25T06:15:20.191Z,8.16
2023-04-25T06:21:25.857Z,8.62
2023-04-25T06:23:57.482Z,9.03
2023-04-25T06:26:40.310Z,8.95
2023-04-25T06:29:13.463Z,8.47
2023-04-25T06:31:47.065Z,8.78
2023-04-25T06:34:18.885Z,8.88
2023-04-25T06:36:53.944Z,9.42
2023-04-25T06:39:29.831Z,9.11
2023-04-25T06:42:10.536Z,9.37
2023-04-25T06:45:05.740Z,10.04
2023-04-25T06:50:59.288Z,9.78
2023-04-25T06:54:20.161Z,9.81
2023-04-25T06:57:04.727Z,9.82
2023-04-25T06:59:35.519Z,10.00
2023-04-25T07:02:05.805Z,9.74
2023-04-25T07:04:48.799Z,10.40
2023-04-25T07:07:19.095Z,10.58
2023-04-25T07:13:05.756Z,9.59
2023-04-25T07:15:35.754Z,9.84
2023-04-25T07:20:49.927Z,10.33
2023-04-25T07:23:24.435Z,10.48
2023-04-25T07:25:57.178Z,10.23
2023-04-25T07:28:28.157Z,10.23
2023-04-25T07:30:56.695Z,9.23
2023-04-25T07:33:27.532Z,9.15
2023-04-25T07:38:40.648Z,9.86
2023-04-25T07:44:05.251Z,11.17
2023-04-25T07:46:37.575Z,10.53
2023-04-25T07:49:13.328Z,10.91
2023-04-25T07:51:46.646Z,10.35
2023-04-25T07:54:29.866Z,10.33
2023-04-25T07:57:08.672Z,10.09
2023-04-25T08:03:00.689Z,9.97
2023-04-25T08:05:34.928Z,9.44
2023-04-25T08:08:09.371Z,10.24
2023-04-25T08:10:43.412Z,10.03
2023-04-25T08:13:31.602Z,11.04
2023-04-25T08:18:51.208Z,12.01
2023-04-25T08:24:10.770Z,12.17
2023-04-25T08:26:42.960Z,12.72
2023-04-25T08:29:17.141Z,11.05
2023-04-25T08:32:04.205Z,11.96
2023-04-25T08:34:38.173Z,11.47
2023-04-25T08:37:11.813Z,11.19
2023-04-25T08:39:47.989Z,11.03
2023-04-25T08:42:37.127Z,11.32
2023-04-25T08:45:10.922Z,11.33
2023-04-25T08:48:09.889Z,11.62
2023-04-25T08:50:46.364Z,12.18
2023-04-25T08:53:20.367Z,11.69
2023-04-25T08:56:19.090Z,11.86
2023-04-25T08:58:58.173Z,11.43
2023-04-25T09:01:51.330Z,11.40
2023-04-25T09:04:26.679Z,11.32
2023-04-25T09:06:58.312Z,11.49
2023-04-25T09:09:31.751Z,12.10
2023-04-25T09:18:05.223Z,11.88
2023-04-25T09:24:02.336Z,11.86
2023-04-25T09:26:30.802Z,12.19
2023-04-25T09:29:08.424Z,11.91
2023-04-25T09:31:44.417Z,12.57
2023-04-25T09:34:17.500Z,11.51
2023-04-25T09:37:06.752Z,11.13
2023-04-25T09:39:57.299Z,11.63
2023-04-25T09:42:26.610Z,12.22
2023-04-25T09:45:01.637Z,11.70
2023-04-25T09:47:31.131Z,12.25
2023-04-25T09:50:02.125Z,11.87
2023-04-25T09:52:40.191Z,11.95
2023-04-25T09:55:21.500Z,12.35
2023-04-25T09:57:54.181Z,12.15
2023-04-25T10:00:23.695Z,10.73
2023-04-25T10:02:52.912Z,11.04
2023-04-25T10:05:51.840Z,10.73
2023-04-25T10:11:15.664Z,11.15
2023-04-25T10:13:45.738Z,11.91
2023-04-25T10:16:14.650Z,11.17
2023-04-25T10:18:59.217Z,12.21
2023-04-25T10:21:42.445Z,12.77
2023-04-25T10:24:22.812Z,11.87
2023-04-25T10:26:52.450Z,11.73
2023-04-25T10:29:26.436Z,11.90
2023-04-25T10:32:06.402Z,11.43
2023-04-25T10:34:44.225Z,12.20
2023-04-25T10:37:13.646Z,12.92
2023-04-25T10:46:07.339Z,11.28
2023-04-25T10:48:39.491Z,11.74
2023-04-25T10:51:14.382Z,11.08
2023-04-25T10:53:46.747Z,11.64
2023-04-25T10:56:24.775Z,12.61
2023-04-25T10:58:54.091Z,12.71
2023-04-25T11:01:27.812Z,13.09
2023-04-25T11:04:02.453Z,13.06
2023-04-25T11:06:42.078Z,16.92
2023-04-25T11:09:15.556Z,14.82
2023-04-25T11:11:56.550Z,14.81
2023-04-25T11:14:29.228Z,15.04
2023-04-25T11:17:01.305Z,14.33
2023-04-25T11:19:30.773Z,15.23
2023-04-25T11:22:04.628Z,15.79
2023-04-25T11:27:17.635Z,12.46
2023-04-25T11:29:45.732Z,12.21
2023-04-25T11:32:14.578Z,12.39
2023-04-25T11:34:48.222Z,13.12
2023-04-25T11:37:19.083Z,12.25
2023-04-25T11:39:50.869Z,12.36
2023-04-25T11:42:35.352Z,12.01
2023-04-25T11:45:06.186Z,12.79
2023-04-25T11:47:48.824Z,12.82
2023-04-25T11:50:19.367Z,13.00
2023-04-25T11:52:52.762Z,14.13
2023-04-25T11:55:23.172Z,13.93
2023-04-25T11:57:57.799Z,13.83
2023-04-25T12:00:26.918Z,12.56
2023-04-25T12:02:57.629Z,12.27
2023-04-25T12:05:32.747Z,12.22
2023-04-25T12:08:14.725Z,11.73
2023-04-25T12:10:48.232Z,11.49
2023-04-25T12:13:26.251Z,11.63
2023-04-25T12:19:00.618Z,12.81
2023-04-25T12:21:57.349Z,12.74
2023-04-25T12:24:29.280Z,11.61
2023-04-25T12:27:02.027Z,11.91
2023-04-25T12:29:49.797Z,11.61
2023-04-25T12:32:25.091Z,12.14
2023-04-25T12:35:00.267Z,12.95
2023-04-25T12:37:28.705Z,12.34
2023-04-25T12:39:57.149Z,13.42
2023-04-25T12:42:25.767Z,13.75
2023-04-25T12:47:42.423Z,14.22
2023-04-25T12:50:12.316Z,16.43
2023-04-25T12:52:44.665Z,16.53
2023-04-25T12:55:17.459Z,15.14
2023-04-25T13:00:31.389Z,12.83
2023-04-25T13:02:59.830Z,13.53
2023-04-25T13:05:28.892Z,13.02
2023-04-25T13:08:06.718Z,14.55
2023-04-25T13:13:20.253Z,14.95
2023-04-25T13:16:23.626Z,14.18
2023-04-25T13:21:59.928Z,12.47
2023-04-25T13:24:38.319Z,12.29
2023-04-25T13:35:27.413Z,12.29
2023-04-25T13:40:38.897Z,13.99
2023-04-25T13:43:16.058Z,12.98
2023-04-25T13:51:39.186Z,12.80
2023-04-25T13:54:17.490Z,13.12
2023-04-25T13:56:49.209Z,12.72
2023-04-25T13:59:22.602Z,12.60
2023-04-25T14:01:56.027Z,12.54
2023-04-25T14:04:44.370Z,13.09
2023-04-25T14:10:11.416Z,15.27
2023-04-25T14:13:05.745Z,14.02
2023-04-25T14:15:53.932Z,13.79
2023-04-25T14:24:24.671Z,12.60
2023-04-25T14:30:19.155Z,12.86
2023-04-25T14:42:29.959Z,12.28
2023-04-25T14:45:03.152Z,12.48
2023-04-25T14:47:37.047Z,11.87
2023-04-25T14:50:07.702Z,11.85
2023-04-25T14:52:37.549Z,12.04
2023-04-25T14:55:08.933Z,11.97
2023-04-25T14:57:45.608Z,11.86
2023-04-25T15:00:28.392Z,11.71
2023-04-25T15:06:02.578Z,12.64
2023-04-25T15:08:34.428Z,12.72
2023-04-25T15:14:19.348Z,13.14
2023-04-25T15:16:48.235Z,11.98
2023-04-25T15:19:16.540Z,11.93
2023-04-25T15:21:45.394Z,11.87
2023-04-25T15:30:47.244Z,11.50
2023-04-25T15:50:37.660Z,11.58
2023-04-25T15:53:16.889Z,11.52
2023-04-25T15:58:45.700Z,12.54
2023-04-25T16:07:01.194Z,11.73
2023-04-25T16:09:33.564Z,11.87
2023-04-25T16:12:02.787Z,13.05
2023-04-25T16:14:31.714Z,13.02
2023-04-25T16:17:01.932Z,13.38
2023-04-25T16:22:36.169Z,16.52
2023-04-25T16:25:08.333Z,14.53
2023-04-25T16:30:19.307Z,15.89
2023-04-25T16:32:50.424Z,15.54
2023-04-25T16:36:01.813Z,16.11
2023-04-25T16:38:40.645Z,13.42
2023-04-25T16:47:59.868Z,12.31
2023-04-25T16:50:28.461Z,12.48
2023-04-25T16:52:56.992Z,12.45
2023-04-25T16:55:26.661Z,11.80
2023-04-25T16:57:55.171Z,11.47
2023-04-25T17:00:23.811Z,11.22
2023-04-25T17:02:52.667Z,11.22
2023-04-25T17:05:20.909Z,11.12
2023-04-25T17:07:49.270Z,11.02
2023-04-25T17:10:18.148Z,11.14
2023-04-25T17:12:48.519Z,10.99
2023-04-25T17:15:17.119Z,10.92
2023-04-25T17:17:45.632Z,10.92
2023-04-25T17:20:18.270Z,10.91
2023-04-25T17:22:46.540Z,10.94
2023-04-25T17:25:21.428Z,10.85
2023-04-25T17:27:52.199Z,10.87
2023-04-25T17:30:22.254Z,10.86
2023-04-25T17:32:51.872Z,10.78
2023-04-25T17:35:20.680Z,10.72
2023-04-25T17:37:51.644Z,10.78
2023-04-25T17:40:21.395Z,10.86
2023-04-25T17:42:51.800Z,10.80
2023-04-25T17:45:20.078Z,10.85
2023-04-25T17:47:48.668Z,10.84
2023-04-25T17:50:20.993Z,10.75
2023-04-25T17:52:54.875Z,10.81
2023-04-25T17:55:24.571Z,10.73
2023-04-25T17:57:57.622Z,10.58
2023-04-25T18:00:26.947Z,10.49
2023-04-25T18:02:56.360Z,10.44
2023-04-25T18:05:25.313Z,10.49
2023-04-25T18:07:54.155Z,10.71
2023-04-25T18:10:23.017Z,10.80
2023-04-25T18:12:51.965Z,10.55
2023-04-25T18:15:23.520Z,10.28
2023-04-25T18:17:54.703Z,10.19
2023-04-25T18:20:23.652Z,10.14
2023-04-25T18:22:52.479Z,10.08
2023-04-25T18:25:20.660Z,10.01
2023-04-25T18:27:50.802Z,9.95
2023-04-25T18:30:19.357Z,9.98
2023-04-25T18:32:48.920Z,9.94
2023-04-25T18:35:17.223Z,9.88
2023-04-25T18:37:45.917Z,9.83
2023-04-25T18:40:16.698Z,9.77
2023-04-25T18:42:44.938Z,9.74
2023-04-25T18:45:14.460Z,9.66
2023-04-25T18:47:43.056Z,9.59
2023-04-25T18:50:13.353Z,9.45
2023-04-25T18:52:42.374Z,9.29
2023-04-25T18:55:12.242Z,9.19
2023-04-25T18:57:41.250Z,9.06
2023-04-25T19:00:11.281Z,9.00
2023-04-25T19:02:40.163Z,8.95
2023-04-25T19:05:10.451Z,8.86
2023-04-25T19:07:40.702Z,8.81
2023-04-25T19:10:09.690Z,8.75
2023-04-25T19:12:40.931Z,8.76
2023-04-25T19:15:11.398Z,8.61
2023-04-25T19:17:39.639Z,8.50
2023-04-25T19:20:08.823Z,8.48
2023-04-25T19:22:37.490Z,8.36
2023-04-25T19:25:10.964Z,8.21
2023-04-25T19:27:39.819Z,8.21
2023-04-25T19:30:11.825Z,8.13
2023-04-25T19:32:40.640Z,8.07
2023-04-25T19:35:11.339Z,8.00
2023-04-25T19:37:46.869Z,7.92
2023-04-25T19:40:23.081Z,7.82
2023-04-25T19:42:52.099Z,7.82
2023-04-25T19:45:20.602Z,7.78
2023-04-25T19:47:49.477Z,7.81
2023-04-25T19:50:18.206Z,7.77
2023-04-25T19:52:46.809Z,7.81
2023-04-25T19:55:15.817Z,7.79
2023-04-25T19:57:46.232Z,7.78
2023-04-25T20:00:20.377Z,7.79
2023-04-25T20:02:50.036Z,7.74
2023-04-25T20:05:19.918Z,7.69
2023-04-25T20:07:49.278Z,7.61
2023-04-25T20:10:18.654Z,7.52
2023-04-25T20:12:49.118Z,7.53
2023-04-25T20:15:20.309Z,7.55
2023-04-25T20:17:49.547Z,7.52
2023-04-25T20:20:19.369Z,7.59
2023-04-25T20:22:47.871Z,7.57
2023-04-25T20:25:19.498Z,7.57
2023-04-25T20:27:49.420Z,7.56
2023-04-25T20:30:18.726Z,7.54
2023-04-25T20:32:47.002Z,7.65
2023-04-25T20:35:15.803Z,7.58
2023-04-25T20:37:44.262Z,7.59
2023-04-25T20:40:13.006Z,7.59
2023-04-25T20:42:41.549Z,7.58
2023-04-25T20:45:13.877Z,7.66
2023-04-25T20:47:42.929Z,7.74
2023-04-25T20:50:12.925Z,7.60
2023-04-25T20:52:43.642Z,7.31
2023-04-25T20:55:12.742Z,7.20
2023-04-25T20:57:41.559Z,7.10
2023-04-25T21:00:16.910Z,6.95
2023-04-25T21:02:47.655Z,6.99
2023-04-25T21:05:17.175Z,6.98
2023-04-25T21:07:45.798Z,6.83
2023-04-25T21:10:16.321Z,6.74
2023-04-25T21:12:48.271Z,6.63
2023-04-25T21:15:18.552Z,6.57
2023-04-25T21:17:49.037Z,6.56
2023-04-25T21:20:18.460Z,6.52
2023-04-25T21:22:50.957Z,6.52
2023-04-25T21:25:24.434Z,6.47
2023-04-25T21:27:53.212Z,6.51
2023-04-25T21:30:23.662Z,6.39
2023-04-25T21:32:53.913Z,6.55
2023-04-25T21:35:23.411Z,6.69
2023-04-25T21:37:52.293Z,6.84
2023-04-25T21:40:20.219Z,6.92
2023-04-25T21:42:51.652Z,6.85
2023-04-25T21:45:20.761Z,6.75
2023-04-25T21:47:49.119Z,6.56
2023-04-25T21:50:19.082Z,6.56
2023-04-25T21:52:47.283Z,6.50
2023-04-25T21:55:15.543Z,6.36
2023-04-25T21:57:43.784Z,6.19
2023-04-25T22:00:21.971Z,5.96
2023-04-25T22:02:50.366Z,5.86
2023-04-25T22:05:22.796Z,5.92
2023-04-25T22:07:51.186Z,5.98
2023-04-25T22:10:19.823Z,5.96
2023-04-25T22:12:51.158Z,5.96
2023-04-25T22:15:21.562Z,5.88
2023-04-25T22:17:52.149Z,5.75
2023-04-25T22:20:25.387Z,5.73
2023-04-25T22:22:53.617Z,5.80
2023-04-25T22:25:22.672Z,5.83
2023-04-25T22:27:55.548Z,5.84
2023-04-25T22:30:24.216Z,5.85
2023-04-25T22:32:52.481Z,5.83
2023-04-25T22:35:22.255Z,5.80
2023-04-25T22:37:50.368Z,5.70
2023-04-25T22:40:18.410Z,5.56
2023-04-25T22:42:46.453Z,5.52
2023-04-25T22:45:14.941Z,5.41
2023-04-25T22:47:43.189Z,5.30
2023-04-25T22:50:14.832Z,5.23
2023-04-25T22:52:44.172Z,5.25
2023-04-25T22:55:13.397Z,5.28
2023-04-25T22:57:41.631Z,5.17
2023-04-25T23:00:16.019Z,5.10
2023-04-25T23:02:45.583Z,5.04
2023-04-25T23:05:15.706Z,4.96
2023-04-25T23:07:46.337Z,5.08
2023-04-25T23:10:15.783Z,5.09
2023-04-25T23:12:44.058Z,5.12
2023-04-25T23:15:14.085Z,5.07
2023-04-25T23:17:42.584Z,4.97
2023-04-25T23:20:12.302Z,4.92
2023-04-25T23:22:40.801Z,4.76
2023-04-25T23:25:12.206Z,4.71
2023-04-25T23:27:42.291Z,4.75
2023-04-25T23:30:11.564Z,4.77
2023-04-25T23:32:40.824Z,4.81
2023-04-25T23:35:10.240Z,4.84
2023-04-25T23:37:40.482Z,4.90
2023-04-25T23:40:10.159Z,4.88
2023-04-25T23:42:41.171Z,4.83
2023-04-25T23:45:10.012Z,4.40
2023-04-25T23:47:39.256Z,4.26
2023-04-25T23:50:08.226Z,4.28
2023-04-25T23:52:38.253Z,4.24
2023-04-25T23:55:07.079Z,4.10
2023-04-25T23:57:35.502Z,4.22
